Pretty Hana — DSQJ5 — position and weather

sailwx.info

Track history (hours):
 
Tides and Currents Weather Stations Pressure Air Temp Water Temp Dewpoint Dewpoint Depression Visibility Wind Speed Wind Dir Waves Ship Positions

Pretty Hana

Last reported at 2015-Mar-03 15:33 UTC. Time now 2015-Mar-29 03:12 UTC.
Position N 31°03' E 122°11'.
Warning: this ship's position is 25 days out of date.

Length 65 m; draft 3.6 m.

Type: Cargo ship. MMSI: 441600000.

Date/timePositionNaut miles runAvg speedWind from/ knotsBaromVisibWave heightAir tempDewpointWater temp
2015-Mar-03 15:33N 31°03' E 122°11'9 8.8
2015-Mar-03 14:33N 31°05' E 122°01'0 0.1
2015-Mar-03 13:33N 31°05' E 122°01'8 7.8
2015-Mar-03 12:33N 31°09' E 121°53'1111.0
2015-Mar-03 11:33N 31°17' E 121°44'1212.1
2015-Mar-03 10:33N 31°24' E 121°33'1110.8
2015-Mar-03 09:33N 31°31' E 121°23'1312.9
2015-Mar-03 08:33N 31°40' E 121°12'2210.5
2015-Mar-03 06:25N 31°55' E 120°52'8 9.0
2015-Mar-03 05:33N 32°01' E 120°46'10 9.8
2015-Mar-03 04:33N 32°00' E 120°34'6 5.1
2015-Mar-03 03:24N 32°00' E 120°27'0 0.0
2015-Mar-03 02:18N 32°00' E 120°27'0 0.0
2015-Mar-03 01:30N 32°00' E 120°27'0 0.0
2015-Mar-03 00:30N 32°00' E 120°27'0 0.0
2015-Mar-02 23:30N 32°00' E 120°27'0 0.0
2015-Mar-02 22:33N 32°00' E 120°27'0 0.0
2015-Mar-02 21:33N 32°00' E 120°27'0 0.0
2015-Mar-02 20:30N 32°00' E 120°27'0 0.0
2015-Mar-02 19:24N 32°00' E 120°27'0 0.0
2015-Mar-02 18:18N 32°00' E 120°27'0 0.0
2015-Mar-02 17:30N 32°00' E 120°27'0 0.0
2015-Mar-02 16:24N 32°00' E 120°27'0 0.0
2015-Mar-02 15:24N 32°00' E 120°27'0 0.0
2015-Mar-02 14:30N 32°00' E 120°27'0 0.0
2015-Mar-02 13:18N 32°00' E 120°27'0 0.0
2015-Mar-02 12:30N 32°00' E 120°27'0 0.0
2015-Mar-02 11:24N 32°00' E 120°27'0 0.0
2015-Mar-02 10:18N 32°00' E 120°27'0 0.0
2015-Mar-02 09:24N 32°00' E 120°27'0 0.0
2015-Mar-02 08:30N 32°00' E 120°27'2 2.2
2015-Mar-02 07:32N 32°02' E 120°28'1010.4
2015-Mar-02 06:33N 31°60' E 120°39'1010.1
2015-Mar-02 05:33N 31°58' E 120°51'2210.3
2015-Mar-02 03:27N 31°42' E 121°09'1011.6
2015-Mar-02 02:33N 31°36' E 121°18'1111.5
2015-Mar-02 01:34N 31°28' E 121°28'1111.3
2015-Mar-02 00:33N 31°22' E 121°39'1111.4
2015-Mar-01 23:34N 31°13' E 121°48'1110.8
2015-Mar-01 22:33N 31°07' E 121°58'1110.6
2015-Mar-01 21:33N 31°03' E 122°09'9 8.9
2015-Mar-01 20:33N 31°02' E 122°20'  
2015-Feb-23 13:12N 35°14' E 139°46'6 9.9
2015-Feb-23 12:33N 35°19' E 139°43'9 9.4
2015-Feb-23 11:33N 35°28' E 139°48'  
Track history (hours):
 
Tides and Currents Weather Stations Pressure Air Temp Water Temp Dewpoint Dewpoint Depression Visibility Wind Speed Wind Dir Waves Ship Positions

Pretty Hana

Last reported at 2015-Mar-03 15:33 UTC. Time now 2015-Mar-29 03:12 UTC.
Position N 31°03' E 122°11'.
Warning: this ship's position is 25 days out of date.

Length 65 m; draft 3.6 m.

Type: Cargo ship. MMSI: 441600000.

Date/timePositionNaut miles runAvg speedWind from/ knotsBaromVisibWave heightAir tempDewpointWater temp
2015-Mar-03 15:33N 31°03' E 122°11'9 8.8
2015-Mar-03 14:33N 31°05' E 122°01'0 0.1
2015-Mar-03 13:33N 31°05' E 122°01'8 7.8
2015-Mar-03 12:33N 31°09' E 121°53'1111.0
2015-Mar-03 11:33N 31°17' E 121°44'1212.1
2015-Mar-03 10:33N 31°24' E 121°33'1110.8
2015-Mar-03 09:33N 31°31' E 121°23'1312.9
2015-Mar-03 08:33N 31°40' E 121°12'2210.5
2015-Mar-03 06:25N 31°55' E 120°52'8 9.0
2015-Mar-03 05:33N 32°01' E 120°46'10 9.8
2015-Mar-03 04:33N 32°00' E 120°34'6 5.1
2015-Mar-03 03:24N 32°00' E 120°27'0 0.0
2015-Mar-03 02:18N 32°00' E 120°27'0 0.0
2015-Mar-03 01:30N 32°00' E 120°27'0 0.0
2015-Mar-03 00:30N 32°00' E 120°27'0 0.0
2015-Mar-02 23:30N 32°00' E 120°27'0 0.0
2015-Mar-02 22:33N 32°00' E 120°27'0 0.0
2015-Mar-02 21:33N 32°00' E 120°27'0 0.0
2015-Mar-02 20:30N 32°00' E 120°27'0 0.0
2015-Mar-02 19:24N 32°00' E 120°27'0 0.0
2015-Mar-02 18:18N 32°00' E 120°27'0 0.0
2015-Mar-02 17:30N 32°00' E 120°27'0 0.0
2015-Mar-02 16:24N 32°00' E 120°27'0 0.0
2015-Mar-02 15:24N 32°00' E 120°27'0 0.0
2015-Mar-02 14:30N 32°00' E 120°27'0 0.0
2015-Mar-02 13:18N 32°00' E 120°27'0 0.0
2015-Mar-02 12:30N 32°00' E 120°27'0 0.0
2015-Mar-02 11:24N 32°00' E 120°27'0 0.0
2015-Mar-02 10:18N 32°00' E 120°27'0 0.0
2015-Mar-02 09:24N 32°00' E 120°27'0 0.0
2015-Mar-02 08:30N 32°00' E 120°27'2 2.2
2015-Mar-02 07:32N 32°02' E 120°28'1010.4
2015-Mar-02 06:33N 31°60' E 120°39'1010.1
2015-Mar-02 05:33N 31°58' E 120°51'2210.3
2015-Mar-02 03:27N 31°42' E 121°09'1011.6
2015-Mar-02 02:33N 31°36' E 121°18'1111.5
2015-Mar-02 01:34N 31°28' E 121°28'1111.3
2015-Mar-02 00:33N 31°22' E 121°39'1111.4
2015-Mar-01 23:34N 31°13' E 121°48'1110.8
2015-Mar-01 22:33N 31°07' E 121°58'1110.6
2015-Mar-01 21:33N 31°03' E 122°09'9 8.9
2015-Mar-01 20:33N 31°02' E 122°20'  
2015-Feb-23 13:12N 35°14' E 139°46'6 9.9
2015-Feb-23 12:33N 35°19' E 139°43'9 9.4
2015-Feb-23 11:33N 35°28' E 139°48'  

Dump ship's entire track history